sensor_id;sensor_type;location;lat;lon;timestamp;P1;durP1;ratioP1;P2;durP2;ratioP2
41689;SDS011;27372;42.658;23.256;2023-11-21T00:00:01;21.40;;;8.48;;
41689;SDS011;27372;42.658;23.256;2023-11-21T00:02:29;18.50;;;9.23;;
41689;SDS011;27372;42.658;23.256;2023-11-21T00:04:54;17.30;;;8.23;;
41689;SDS011;27372;42.658;23.256;2023-11-21T00:07:20;18.00;;;8.75;;
41689;SDS011;27372;42.658;23.256;2023-11-21T00:09:46;17.13;;;9.40;;
41689;SDS011;27372;42.658;23.256;2023-11-21T00:12:13;18.33;;;8.93;;
41689;SDS011;27372;42.658;23.256;2023-11-21T00:14:39;15.18;;;7.70;;
41689;SDS011;27372;42.658;23.256;2023-11-21T00:17:05;11.90;;;5.82;;
41689;SDS011;27372;42.658;23.256;2023-11-21T00:19:31;12.32;;;6.07;;
41689;SDS011;27372;42.658;23.256;2023-11-21T00:21:58;13.45;;;6.82;;
41689;SDS011;27372;42.658;23.256;2023-11-21T00:24:23;13.45;;;6.95;;
41689;SDS011;27372;42.658;23.256;2023-11-21T00:26:50;17.27;;;7.55;;
41689;SDS011;27372;42.658;23.256;2023-11-21T00:29:15;17.40;;;10.23;;
41689;SDS011;27372;42.658;23.256;2023-11-21T00:31:43;22.85;;;12.25;;
41689;SDS011;27372;42.658;23.256;2023-11-21T00:34:10;30.40;;;11.15;;
41689;SDS011;27372;42.658;23.256;2023-11-21T00:36:36;24.55;;;12.10;;
41689;SDS011;27372;42.658;23.256;2023-11-21T00:39:02;19.90;;;11.10;;
41689;SDS011;27372;42.658;23.256;2023-11-21T00:41:27;17.00;;;8.80;;
41689;SDS011;27372;42.658;23.256;2023-11-21T00:43:53;17.83;;;9.23;;
41689;SDS011;27372;42.658;23.256;2023-11-21T00:46:20;31.38;;;11.55;;
41689;SDS011;27372;42.658;23.256;2023-11-21T00:48:45;22.48;;;9.18;;
41689;SDS011;27372;42.658;23.256;2023-11-21T00:51:11;22.35;;;8.55;;
41689;SDS011;27372;42.658;23.256;2023-11-21T00:53:36;19.85;;;8.20;;
41689;SDS011;27372;42.658;23.256;2023-11-21T00:56:01;14.60;;;6.28;;
41689;SDS011;27372;42.658;23.256;2023-11-21T00:58:27;16.20;;;7.88;;
41689;SDS011;27372;42.658;23.256;2023-11-21T01:00:53;15.02;;;6.40;;
41689;SDS011;27372;42.658;23.256;2023-11-21T01:03:18;13.55;;;6.47;;
41689;SDS011;27372;42.658;23.256;2023-11-21T01:05:44;16.02;;;7.03;;
41689;SDS011;27372;42.658;23.256;2023-11-21T01:08:10;16.20;;;7.18;;
41689;SDS011;27372;42.658;23.256;2023-11-21T01:10:36;16.13;;;7.72;;
41689;SDS011;27372;42.658;23.256;2023-11-21T01:13:01;14.70;;;7.20;;
41689;SDS011;27372;42.658;23.256;2023-11-21T01:15:29;13.77;;;6.72;;
41689;SDS011;27372;42.658;23.256;2023-11-21T01:17:54;15.23;;;7.07;;
41689;SDS011;27372;42.658;23.256;2023-11-21T01:20:20;15.30;;;7.32;;
41689;SDS011;27372;42.658;23.256;2023-11-21T01:22:45;13.30;;;7.35;;
41689;SDS011;27372;42.658;23.256;2023-11-21T01:25:14;12.43;;;6.20;;
41689;SDS011;27372;42.658;23.256;2023-11-21T01:27:41;12.30;;;6.85;;
41689;SDS011;27372;42.658;23.256;2023-11-21T01:30:06;14.65;;;6.95;;
41689;SDS011;27372;42.658;23.256;2023-11-21T01:32:34;14.52;;;7.55;;
41689;SDS011;27372;42.658;23.256;2023-11-21T01:34:59;20.80;;;8.82;;
41689;SDS011;27372;42.658;23.256;2023-11-21T01:37:25;14.13;;;7.93;;
41689;SDS011;27372;42.658;23.256;2023-11-21T01:39:53;14.25;;;7.50;;
41689;SDS011;27372;42.658;23.256;2023-11-21T01:42:20;14.95;;;8.18;;
41689;SDS011;27372;42.658;23.256;2023-11-21T01:44:46;11.80;;;6.40;;
41689;SDS011;27372;42.658;23.256;2023-11-21T01:47:11;13.55;;;4.95;;
41689;SDS011;27372;42.658;23.256;2023-11-21T01:49:38;9.30;;;5.20;;
41689;SDS011;27372;42.658;23.256;2023-11-21T01:52:04;12.73;;;5.40;;
41689;SDS011;27372;42.658;23.256;2023-11-21T01:54:30;9.35;;;5.13;;
41689;SDS011;27372;42.658;23.256;2023-11-21T01:56:59;14.85;;;7.88;;
41689;SDS011;27372;42.658;23.256;2023-11-21T01:59:29;15.63;;;7.93;;
41689;SDS011;27372;42.658;23.256;2023-11-21T02:01:59;19.13;;;8.65;;
41689;SDS011;27372;42.658;23.256;2023-11-21T02:04:25;15.23;;;8.23;;
41689;SDS011;27372;42.658;23.256;2023-11-21T02:06:50;13.88;;;6.90;;
41689;SDS011;27372;42.658;23.256;2023-11-21T02:09:16;7.45;;;4.30;;
41689;SDS011;27372;42.658;23.256;2023-11-21T02:11:42;11.60;;;5.40;;
41689;SDS011;27372;42.658;23.256;2023-11-21T02:14:09;153.52;;;71.32;;
41689;SDS011;27372;42.658;23.256;2023-11-21T02:16:35;130.18;;;52.92;;
41689;SDS011;27372;42.658;23.256;2023-11-21T02:19:02;49.45;;;21.33;;
41689;SDS011;27372;42.658;23.256;2023-11-21T02:21:34;40.08;;;17.05;;
41689;SDS011;27372;42.658;23.256;2023-11-21T02:24:01;43.53;;;19.98;;
41689;SDS011;27372;42.658;23.256;2023-11-21T02:26:26;60.65;;;26.20;;
41689;SDS011;27372;42.658;23.256;2023-11-21T02:28:52;40.55;;;18.73;;
41689;SDS011;27372;42.658;23.256;2023-11-21T02:31:18;38.42;;;18.17;;
41689;SDS011;27372;42.658;23.256;2023-11-21T02:33:44;30.95;;;14.45;;
41689;SDS011;27372;42.658;23.256;2023-11-21T02:36:09;24.02;;;11.45;;
41689;SDS011;27372;42.658;23.256;2023-11-21T02:38:34;18.27;;;10.00;;
41689;SDS011;27372;42.658;23.256;2023-11-21T02:41:00;25.08;;;12.48;;
41689;SDS011;27372;42.658;23.256;2023-11-21T02:43:25;29.77;;;14.43;;
41689;SDS011;27372;42.658;23.256;2023-11-21T02:45:51;36.90;;;18.55;;
41689;SDS011;27372;42.658;23.256;2023-11-21T02:48:16;44.08;;;22.08;;
41689;SDS011;27372;42.658;23.256;2023-11-21T02:50:41;24.27;;;12.43;;
41689;SDS011;27372;42.658;23.256;2023-11-21T02:53:08;17.75;;;9.85;;
41689;SDS011;27372;42.658;23.256;2023-11-21T02:55:35;13.63;;;7.63;;
41689;SDS011;27372;42.658;23.256;2023-11-21T02:58:01;14.23;;;8.48;;
41689;SDS011;27372;42.658;23.256;2023-11-21T03:00:27;11.93;;;6.63;;
41689;SDS011;27372;42.658;23.256;2023-11-21T03:02:52;11.00;;;6.97;;
41689;SDS011;27372;42.658;23.256;2023-11-21T03:05:20;14.35;;;7.57;;
41689;SDS011;27372;42.658;23.256;2023-11-21T03:07:46;11.90;;;7.03;;
41689;SDS011;27372;42.658;23.256;2023-11-21T03:10:12;10.55;;;6.45;;
41689;SDS011;27372;42.658;23.256;2023-11-21T03:12:38;12.50;;;7.03;;
41689;SDS011;27372;42.658;23.256;2023-11-21T03:15:06;12.30;;;7.22;;
41689;SDS011;27372;42.658;23.256;2023-11-21T03:17:32;11.80;;;7.30;;
41689;SDS011;27372;42.658;23.256;2023-11-21T03:19:59;16.27;;;7.70;;
41689;SDS011;27372;42.658;23.256;2023-11-21T03:22:25;15.63;;;8.55;;
41689;SDS011;27372;42.658;23.256;2023-11-21T03:24:50;13.82;;;7.70;;
41689;SDS011;27372;42.658;23.256;2023-11-21T03:27:15;9.85;;;5.20;;
41689;SDS011;27372;42.658;23.256;2023-11-21T03:29:41;8.63;;;4.07;;
41689;SDS011;27372;42.658;23.256;2023-11-21T03:32:06;9.60;;;5.10;;
41689;SDS011;27372;42.658;23.256;2023-11-21T03:34:32;10.05;;;5.60;;
41689;SDS011;27372;42.658;23.256;2023-11-21T03:36:58;8.65;;;5.82;;
41689;SDS011;27372;42.658;23.256;2023-11-21T03:39:23;14.25;;;6.82;;
41689;SDS011;27372;42.658;23.256;2023-11-21T03:41:50;13.63;;;6.95;;
41689;SDS011;27372;42.658;23.256;2023-11-21T03:44:17;13.10;;;6.32;;
41689;SDS011;27372;42.658;23.256;2023-11-21T03:46:43;9.57;;;5.53;;
41689;SDS011;27372;42.658;23.256;2023-11-21T03:49:09;9.73;;;4.82;;
41689;SDS011;27372;42.658;23.256;2023-11-21T03:51:35;13.32;;;6.55;;
41689;SDS011;27372;42.658;23.256;2023-11-21T03:54:01;15.15;;;8.48;;
41689;SDS011;27372;42.658;23.256;2023-11-21T03:56:27;23.63;;;10.15;;
41689;SDS011;27372;42.658;23.256;2023-11-21T03:58:52;19.67;;;11.57;;
41689;SDS011;27372;42.658;23.256;2023-11-21T04:01:21;20.58;;;11.32;;
41689;SDS011;27372;42.658;23.256;2023-11-21T04:03:48;24.33;;;11.88;;
41689;SDS011;27372;42.658;23.256;2023-11-21T04:06:14;21.70;;;10.60;;
41689;SDS011;27372;42.658;23.256;2023-11-21T04:08:39;21.33;;;11.57;;
41689;SDS011;27372;42.658;23.256;2023-11-21T04:11:05;22.70;;;12.55;;
41689;SDS011;27372;42.658;23.256;2023-11-21T04:13:30;26.98;;;12.85;;
41689;SDS011;27372;42.658;23.256;2023-11-21T04:15:55;31.70;;;15.45;;
41689;SDS011;27372;42.658;23.256;2023-11-21T04:18:21;32.33;;;16.75;;
41689;SDS011;27372;42.658;23.256;2023-11-21T04:20:48;25.33;;;14.13;;
41689;SDS011;27372;42.658;23.256;2023-11-21T04:23:14;28.40;;;14.07;;
41689;SDS011;27372;42.658;23.256;2023-11-21T04:25:40;27.48;;;13.73;;
41689;SDS011;27372;42.658;23.256;2023-11-21T04:28:05;30.08;;;12.55;;
41689;SDS011;27372;42.658;23.256;2023-11-21T04:30:31;22.02;;;10.80;;
41689;SDS011;27372;42.658;23.256;2023-11-21T04:32:57;23.75;;;10.40;;
41689;SDS011;27372;42.658;23.256;2023-11-21T04:35:23;20.80;;;10.32;;
41689;SDS011;27372;42.658;23.256;2023-11-21T04:37:48;21.73;;;11.18;;
41689;SDS011;27372;42.658;23.256;2023-11-21T04:40:16;21.60;;;10.77;;
41689;SDS011;27372;42.658;23.256;2023-11-21T04:42:41;19.83;;;10.45;;
41689;SDS011;27372;42.658;23.256;2023-11-21T04:45:07;22.15;;;10.10;;
41689;SDS011;27372;42.658;23.256;2023-11-21T04:47:36;21.65;;;10.27;;
41689;SDS011;27372;42.658;23.256;2023-11-21T04:50:02;17.52;;;9.75;;
41689;SDS011;27372;42.658;23.256;2023-11-21T04:52:28;15.90;;;8.82;;
41689;SDS011;27372;42.658;23.256;2023-11-21T04:54:54;16.15;;;8.45;;
41689;SDS011;27372;42.658;23.256;2023-11-21T04:57:20;14.02;;;7.32;;
41689;SDS011;27372;42.658;23.256;2023-11-21T04:59:46;16.13;;;8.50;;
41689;SDS011;27372;42.658;23.256;2023-11-21T05:02:13;16.38;;;9.38;;
41689;SDS011;27372;42.658;23.256;2023-11-21T05:04:38;32.10;;;14.85;;
41689;SDS011;27372;42.658;23.256;2023-11-21T05:07:04;19.50;;;9.70;;
41689;SDS011;27372;42.658;23.256;2023-11-21T05:09:30;16.60;;;8.98;;
41689;SDS011;27372;42.658;23.256;2023-11-21T05:11:57;23.05;;;10.05;;
41689;SDS011;27372;42.658;23.256;2023-11-21T05:14:31;16.13;;;9.18;;
41689;SDS011;27372;42.658;23.256;2023-11-21T05:16:56;22.08;;;10.40;;
41689;SDS011;27372;42.658;23.256;2023-11-21T05:19:21;19.55;;;9.70;;
41689;SDS011;27372;42.658;23.256;2023-11-21T05:21:50;20.42;;;9.43;;
41689;SDS011;27372;42.658;23.256;2023-11-21T05:24:15;14.90;;;8.82;;
41689;SDS011;27372;42.658;23.256;2023-11-21T05:26:41;15.35;;;8.63;;
41689;SDS011;27372;42.658;23.256;2023-11-21T05:29:06;20.20;;;9.20;;
41689;SDS011;27372;42.658;23.256;2023-11-21T05:31:32;17.63;;;8.85;;
41689;SDS011;27372;42.658;23.256;2023-11-21T05:33:57;15.88;;;9.35;;
41689;SDS011;27372;42.658;23.256;2023-11-21T05:36:22;15.38;;;8.70;;
41689;SDS011;27372;42.658;23.256;2023-11-21T05:38:48;18.63;;;8.73;;
41689;SDS011;27372;42.658;23.256;2023-11-21T05:41:13;18.45;;;9.32;;
41689;SDS011;27372;42.658;23.256;2023-11-21T05:43:40;19.67;;;9.93;;
41689;SDS011;27372;42.658;23.256;2023-11-21T05:46:05;17.52;;;9.27;;
41689;SDS011;27372;42.658;23.256;2023-11-21T05:48:32;15.95;;;9.00;;
41689;SDS011;27372;42.658;23.256;2023-11-21T05:50:57;17.77;;;8.98;;
41689;SDS011;27372;42.658;23.256;2023-11-21T05:53:24;20.55;;;10.38;;
41689;SDS011;27372;42.658;23.256;2023-11-21T05:55:49;19.30;;;9.15;;
41689;SDS011;27372;42.658;23.256;2023-11-21T05:58:15;17.75;;;9.15;;
41689;SDS011;27372;42.658;23.256;2023-11-21T06:00:40;14.13;;;8.52;;
41689;SDS011;27372;42.658;23.256;2023-11-21T06:03:06;18.85;;;9.60;;
41689;SDS011;27372;42.658;23.256;2023-11-21T06:05:33;20.85;;;12.52;;
41689;SDS011;27372;42.658;23.256;2023-11-21T06:07:58;27.77;;;15.07;;
41689;SDS011;27372;42.658;23.256;2023-11-21T06:10:24;29.13;;;15.73;;
41689;SDS011;27372;42.658;23.256;2023-11-21T06:12:50;38.20;;;21.15;;
41689;SDS011;27372;42.658;23.256;2023-11-21T06:15:15;32.92;;;19.08;;
41689;SDS011;27372;42.658;23.256;2023-11-21T06:17:44;34.92;;;17.85;;
41689;SDS011;27372;42.658;23.256;2023-11-21T06:20:10;30.90;;;17.95;;
41689;SDS011;27372;42.658;23.256;2023-11-21T06:22:39;33.40;;;18.67;;
41689;SDS011;27372;42.658;23.256;2023-11-21T06:25:06;35.70;;;19.23;;
41689;SDS011;27372;42.658;23.256;2023-11-21T06:27:33;36.58;;;19.65;;
41689;SDS011;27372;42.658;23.256;2023-11-21T06:30:01;32.47;;;18.50;;
41689;SDS011;27372;42.658;23.256;2023-11-21T06:32:27;31.40;;;17.70;;
41689;SDS011;27372;42.658;23.256;2023-11-21T06:34:54;33.65;;;17.63;;
41689;SDS011;27372;42.658;23.256;2023-11-21T06:37:20;36.25;;;19.67;;
41689;SDS011;27372;42.658;23.256;2023-11-21T06:39:48;33.05;;;18.30;;
41689;SDS011;27372;42.658;23.256;2023-11-21T06:42:14;40.58;;;18.05;;
41689;SDS011;27372;42.658;23.256;2023-11-21T06:44:40;36.30;;;17.67;;
41689;SDS011;27372;42.658;23.256;2023-11-21T06:47:06;37.55;;;19.50;;
41689;SDS011;27372;42.658;23.256;2023-11-21T06:49:32;44.65;;;21.83;;
41689;SDS011;27372;42.658;23.256;2023-11-21T06:51:57;48.47;;;24.48;;
41689;SDS011;27372;42.658;23.256;2023-11-21T06:54:23;45.38;;;24.25;;
41689;SDS011;27372;42.658;23.256;2023-11-21T06:56:49;47.05;;;25.35;;
41689;SDS011;27372;42.658;23.256;2023-11-21T06:59:15;46.35;;;24.13;;
41689;SDS011;27372;42.658;23.256;2023-11-21T07:01:41;47.30;;;22.55;;
41689;SDS011;27372;42.658;23.256;2023-11-21T07:04:06;40.78;;;20.92;;
41689;SDS011;27372;42.658;23.256;2023-11-21T07:06:32;36.92;;;20.38;;
41689;SDS011;27372;42.658;23.256;2023-11-21T07:08:58;39.10;;;19.75;;
41689;SDS011;27372;42.658;23.256;2023-11-21T07:11:23;33.08;;;19.38;;
41689;SDS011;27372;42.658;23.256;2023-11-21T07:13:50;37.33;;;19.67;;
41689;SDS011;27372;42.658;23.256;2023-11-21T07:16:15;40.47;;;20.13;;
41689;SDS011;27372;42.658;23.256;2023-11-21T07:18:41;33.83;;;19.13;;
41689;SDS011;27372;42.658;23.256;2023-11-21T07:21:06;33.83;;;19.52;;
41689;SDS011;27372;42.658;23.256;2023-11-21T07:23:33;34.20;;;18.80;;
41689;SDS011;27372;42.658;23.256;2023-11-21T07:25:59;36.22;;;19.85;;
41689;SDS011;27372;42.658;23.256;2023-11-21T07:28:24;35.20;;;19.25;;
41689;SDS011;27372;42.658;23.256;2023-11-21T07:30:50;35.20;;;20.58;;
41689;SDS011;27372;42.658;23.256;2023-11-21T07:33:17;38.97;;;20.83;;
41689;SDS011;27372;42.658;23.256;2023-11-21T07:35:43;39.85;;;20.58;;
41689;SDS011;27372;42.658;23.256;2023-11-21T07:38:08;36.10;;;21.15;;
41689;SDS011;27372;42.658;23.256;2023-11-21T07:40:33;40.75;;;21.27;;
41689;SDS011;27372;42.658;23.256;2023-11-21T07:42:59;39.83;;;22.50;;
41689;SDS011;27372;42.658;23.256;2023-11-21T07:45:25;37.47;;;23.73;;
41689;SDS011;27372;42.658;23.256;2023-11-21T07:47:53;47.33;;;22.10;;
41689;SDS011;27372;42.658;23.256;2023-11-21T07:50:19;30.30;;;17.08;;
41689;SDS011;27372;42.658;23.256;2023-11-21T07:52:45;30.42;;;18.48;;
41689;SDS011;27372;42.658;23.256;2023-11-21T07:55:11;33.58;;;17.50;;
41689;SDS011;27372;42.658;23.256;2023-11-21T07:57:36;35.05;;;18.65;;
41689;SDS011;27372;42.658;23.256;2023-11-21T08:00:03;35.83;;;20.98;;
41689;SDS011;27372;42.658;23.256;2023-11-21T08:02:31;38.53;;;21.73;;
41689;SDS011;27372;42.658;23.256;2023-11-21T08:04:57;46.35;;;23.98;;
41689;SDS011;27372;42.658;23.256;2023-11-21T08:07:22;51.45;;;26.02;;
41689;SDS011;27372;42.658;23.256;2023-11-21T08:09:48;46.88;;;25.58;;
41689;SDS011;27372;42.658;23.256;2023-11-21T08:12:15;46.85;;;25.00;;
41689;SDS011;27372;42.658;23.256;2023-11-21T08:14:40;53.85;;;25.58;;
41689;SDS011;27372;42.658;23.256;2023-11-21T08:17:06;50.97;;;25.35;;
41689;SDS011;27372;42.658;23.256;2023-11-21T08:19:31;43.45;;;25.38;;
41689;SDS011;27372;42.658;23.256;2023-11-21T08:21:57;48.58;;;26.00;;
41689;SDS011;27372;42.658;23.256;2023-11-21T08:24:24;48.75;;;25.95;;
41689;SDS011;27372;42.658;23.256;2023-11-21T08:26:50;45.40;;;25.08;;
41689;SDS011;27372;42.658;23.256;2023-11-21T08:29:17;46.95;;;24.60;;
41689;SDS011;27372;42.658;23.256;2023-11-21T08:31:43;51.10;;;25.55;;
41689;SDS011;27372;42.658;23.256;2023-11-21T08:34:11;45.15;;;24.67;;
41689;SDS011;27372;42.658;23.256;2023-11-21T08:36:41;50.47;;;24.88;;
41689;SDS011;27372;42.658;23.256;2023-11-21T08:39:08;41.25;;;23.75;;
41689;SDS011;27372;42.658;23.256;2023-11-21T08:41:34;48.38;;;23.88;;
41689;SDS011;27372;42.658;23.256;2023-11-21T08:44:00;37.95;;;21.60;;
41689;SDS011;27372;42.658;23.256;2023-11-21T08:46:25;41.55;;;22.83;;
41689;SDS011;27372;42.658;23.256;2023-11-21T08:48:51;37.67;;;21.13;;
41689;SDS011;27372;42.658;23.256;2023-11-21T08:51:17;35.78;;;21.13;;
41689;SDS011;27372;42.658;23.256;2023-11-21T08:53:45;37.30;;;18.13;;
41689;SDS011;27372;42.658;23.256;2023-11-21T08:56:13;38.58;;;20.23;;
41689;SDS011;27372;42.658;23.256;2023-11-21T08:58:39;43.88;;;21.45;;
41689;SDS011;27372;42.658;23.256;2023-11-21T09:01:06;43.15;;;21.63;;
41689;SDS011;27372;42.658;23.256;2023-11-21T09:03:32;39.15;;;21.50;;
41689;SDS011;27372;42.658;23.256;2023-11-21T09:05:59;39.47;;;21.58;;
41689;SDS011;27372;42.658;23.256;2023-11-21T09:08:25;39.83;;;19.77;;
41689;SDS011;27372;42.658;23.256;2023-11-21T09:10:50;42.63;;;21.35;;
41689;SDS011;27372;42.658;23.256;2023-11-21T09:13:16;41.38;;;22.38;;
41689;SDS011;27372;42.658;23.256;2023-11-21T09:15:43;40.53;;;22.30;;
41689;SDS011;27372;42.658;23.256;2023-11-21T09:18:11;43.92;;;21.85;;
41689;SDS011;27372;42.658;23.256;2023-11-21T09:23:05;40.72;;;22.27;;
41689;SDS011;27372;42.658;23.256;2023-11-21T09:25:32;45.80;;;23.23;;
41689;SDS011;27372;42.658;23.256;2023-11-21T09:27:57;45.03;;;22.35;;
41689;SDS011;27372;42.658;23.256;2023-11-21T09:30:23;44.33;;;23.10;;
41689;SDS011;27372;42.658;23.256;2023-11-21T09:32:49;46.28;;;24.17;;
41689;SDS011;27372;42.658;23.256;2023-11-21T09:35:15;44.25;;;24.33;;
41689;SDS011;27372;42.658;23.256;2023-11-21T09:37:43;44.15;;;23.83;;
41689;SDS011;27372;42.658;23.256;2023-11-21T09:40:11;48.60;;;23.08;;
41689;SDS011;27372;42.658;23.256;2023-11-21T09:42:39;43.90;;;23.33;;
41689;SDS011;27372;42.658;23.256;2023-11-21T09:45:13;41.45;;;22.75;;
41689;SDS011;27372;42.658;23.256;2023-11-21T09:48:00;43.67;;;22.73;;
41689;SDS011;27372;42.658;23.256;2023-11-21T09:50:26;38.50;;;19.58;;
41689;SDS011;27372;42.658;23.256;2023-11-21T09:52:57;33.60;;;17.50;;
41689;SDS011;27372;42.658;23.256;2023-11-21T09:55:30;32.10;;;17.20;;
41689;SDS011;27372;42.658;23.256;2023-11-21T09:58:01;29.20;;;16.88;;
41689;SDS011;27372;42.658;23.256;2023-11-21T10:00:28;32.83;;;17.05;;
41689;SDS011;27372;42.658;23.256;2023-11-21T10:02:58;28.88;;;16.38;;
41689;SDS011;27372;42.658;23.256;2023-11-21T10:05:24;30.02;;;16.50;;
41689;SDS011;27372;42.658;23.256;2023-11-21T10:07:50;27.63;;;16.35;;
41689;SDS011;27372;42.658;23.256;2023-11-21T10:10:18;28.77;;;15.35;;
41689;SDS011;27372;42.658;23.256;2023-11-21T10:12:51;31.45;;;17.27;;
41689;SDS011;27372;42.658;23.256;2023-11-21T10:15:23;31.85;;;19.45;;
41689;SDS011;27372;42.658;23.256;2023-11-21T10:17:52;29.13;;;15.15;;
41689;SDS011;27372;42.658;23.256;2023-11-21T10:20:20;23.75;;;13.23;;
41689;SDS011;27372;42.658;23.256;2023-11-21T10:22:45;32.30;;;13.68;;
41689;SDS011;27372;42.658;23.256;2023-11-21T10:25:11;24.08;;;13.52;;
41689;SDS011;27372;42.658;23.256;2023-11-21T10:27:39;23.30;;;12.33;;
41689;SDS011;27372;42.658;23.256;2023-11-21T10:30:06;26.13;;;13.10;;
41689;SDS011;27372;42.658;23.256;2023-11-21T10:32:33;26.48;;;13.88;;
41689;SDS011;27372;42.658;23.256;2023-11-21T10:34:59;19.63;;;12.45;;
41689;SDS011;27372;42.658;23.256;2023-11-21T10:37:32;24.77;;;14.02;;
41689;SDS011;27372;42.658;23.256;2023-11-21T10:40:00;27.85;;;13.75;;
41689;SDS011;27372;42.658;23.256;2023-11-21T10:42:26;26.63;;;13.43;;
41689;SDS011;27372;42.658;23.256;2023-11-21T10:44:54;22.65;;;11.68;;
41689;SDS011;27372;42.658;23.256;2023-11-21T10:47:20;25.95;;;12.80;;
41689;SDS011;27372;42.658;23.256;2023-11-21T10:49:51;22.77;;;12.60;;
41689;SDS011;27372;42.658;23.256;2023-11-21T10:52:18;21.15;;;12.82;;
41689;SDS011;27372;42.658;23.256;2023-11-21T10:54:44;25.50;;;13.07;;
41689;SDS011;27372;42.658;23.256;2023-11-21T10:57:11;24.70;;;14.05;;
41689;SDS011;27372;42.658;23.256;2023-11-21T10:59:40;35.55;;;15.32;;
41689;SDS011;27372;42.658;23.256;2023-11-21T11:02:10;33.10;;;15.85;;
41689;SDS011;27372;42.658;23.256;2023-11-21T11:04:53;31.08;;;15.77;;
41689;SDS011;27372;42.658;23.256;2023-11-21T11:07:21;29.63;;;15.07;;
41689;SDS011;27372;42.658;23.256;2023-11-21T11:09:50;25.45;;;14.30;;
41689;SDS011;27372;42.658;23.256;2023-11-21T11:12:17;35.58;;;14.50;;
41689;SDS011;27372;42.658;23.256;2023-11-21T11:14:44;32.22;;;15.10;;
41689;SDS011;27372;42.658;23.256;2023-11-21T11:17:10;31.27;;;16.05;;
41689;SDS011;27372;42.658;23.256;2023-11-21T11:19:35;28.73;;;14.88;;
41689;SDS011;27372;42.658;23.256;2023-11-21T11:25:19;33.10;;;16.17;;
41689;SDS011;27372;42.658;23.256;2023-11-21T11:28:06;31.88;;;16.92;;
41689;SDS011;27372;42.658;23.256;2023-11-21T11:35:53;32.40;;;16.25;;
41689;SDS011;27372;42.658;23.256;2023-11-21T11:40:57;34.88;;;17.88;;
41689;SDS011;27372;42.658;23.256;2023-11-21T11:43:27;31.45;;;17.60;;
41689;SDS011;27372;42.658;23.256;2023-11-21T11:45:57;29.05;;;17.80;;
41689;SDS011;27372;42.658;23.256;2023-11-21T11:48:28;30.83;;;16.90;;
41689;SDS011;27372;42.658;23.256;2023-11-21T11:53:33;38.47;;;17.40;;
41689;SDS011;27372;42.658;23.256;2023-11-21T11:56:21;33.17;;;17.38;;
41689;SDS011;27372;42.658;23.256;2023-11-21T11:58:48;36.70;;;20.38;;
41689;SDS011;27372;42.658;23.256;2023-11-21T12:01:19;36.22;;;19.35;;
41689;SDS011;27372;42.658;23.256;2023-11-21T12:03:44;32.38;;;18.85;;
41689;SDS011;27372;42.658;23.256;2023-11-21T12:06:32;33.08;;;19.92;;
41689;SDS011;27372;42.658;23.256;2023-11-21T12:09:01;37.28;;;20.77;;
41689;SDS011;27372;42.658;23.256;2023-11-21T12:11:30;44.97;;;24.23;;
41689;SDS011;27372;42.658;23.256;2023-11-21T12:13:57;47.45;;;26.63;;
41689;SDS011;27372;42.658;23.256;2023-11-21T12:16:24;45.88;;;27.88;;
41689;SDS011;27372;42.658;23.256;2023-11-21T12:18:52;68.82;;;49.80;;
41689;SDS011;27372;42.658;23.256;2023-11-21T12:21:19;62.10;;;40.45;;
41689;SDS011;27372;42.658;23.256;2023-11-21T12:23:45;56.55;;;34.58;;
41689;SDS011;27372;42.658;23.256;2023-11-21T12:26:12;52.35;;;30.40;;
41689;SDS011;27372;42.658;23.256;2023-11-21T12:28:38;46.38;;;26.40;;
41689;SDS011;27372;42.658;23.256;2023-11-21T12:31:04;38.00;;;22.88;;
41689;SDS011;27372;42.658;23.256;2023-11-21T12:33:31;41.00;;;22.25;;
41689;SDS011;27372;42.658;23.256;2023-11-21T12:36:00;42.70;;;22.23;;
41689;SDS011;27372;42.658;23.256;2023-11-21T12:38:25;42.85;;;24.23;;
41689;SDS011;27372;42.658;23.256;2023-11-21T12:40:59;49.47;;;25.30;;
41689;SDS011;27372;42.658;23.256;2023-11-21T12:43:25;51.63;;;25.27;;
41689;SDS011;27372;42.658;23.256;2023-11-21T12:45:50;47.85;;;25.67;;
41689;SDS011;27372;42.658;23.256;2023-11-21T12:48:17;48.92;;;26.65;;
41689;SDS011;27372;42.658;23.256;2023-11-21T12:50:49;50.63;;;26.80;;
41689;SDS011;27372;42.658;23.256;2023-11-21T12:53:18;58.95;;;28.02;;
41689;SDS011;27372;42.658;23.256;2023-11-21T12:55:44;44.55;;;25.73;;
41689;SDS011;27372;42.658;23.256;2023-11-21T12:58:15;45.75;;;25.33;;
41689;SDS011;27372;42.658;23.256;2023-11-21T13:00:47;42.08;;;25.38;;
41689;SDS011;27372;42.658;23.256;2023-11-21T13:03:14;51.58;;;25.33;;
41689;SDS011;27372;42.658;23.256;2023-11-21T13:08:12;47.47;;;26.40;;
41689;SDS011;27372;42.658;23.256;2023-11-21T13:10:42;46.67;;;27.08;;
41689;SDS011;27372;42.658;23.256;2023-11-21T13:13:11;43.60;;;24.85;;
41689;SDS011;27372;42.658;23.256;2023-11-21T13:15:49;41.38;;;25.33;;
41689;SDS011;27372;42.658;23.256;2023-11-21T13:18:15;46.03;;;26.23;;
41689;SDS011;27372;42.658;23.256;2023-11-21T13:20:42;45.15;;;26.35;;
41689;SDS011;27372;42.658;23.256;2023-11-21T13:23:09;50.08;;;27.75;;
41689;SDS011;27372;42.658;23.256;2023-11-21T13:25:37;49.38;;;29.45;;
41689;SDS011;27372;42.658;23.256;2023-11-21T13:28:05;54.78;;;27.80;;
41689;SDS011;27372;42.658;23.256;2023-11-21T13:30:31;51.08;;;28.30;;
41689;SDS011;27372;42.658;23.256;2023-11-21T13:33:03;46.00;;;26.40;;
41689;SDS011;27372;42.658;23.256;2023-11-21T13:35:33;50.40;;;27.73;;
41689;SDS011;27372;42.658;23.256;2023-11-21T13:38:09;49.60;;;26.70;;
41689;SDS011;27372;42.658;23.256;2023-11-21T13:40:38;48.55;;;27.63;;
41689;SDS011;27372;42.658;23.256;2023-11-21T13:43:11;47.20;;;26.80;;
41689;SDS011;27372;42.658;23.256;2023-11-21T13:45:40;48.58;;;26.88;;
41689;SDS011;27372;42.658;23.256;2023-11-21T13:48:07;44.05;;;24.52;;
41689;SDS011;27372;42.658;23.256;2023-11-21T13:50:41;40.78;;;25.77;;
41689;SDS011;27372;42.658;23.256;2023-11-21T13:53:21;48.55;;;26.60;;
41689;SDS011;27372;42.658;23.256;2023-11-21T13:58:16;54.58;;;28.25;;
41689;SDS011;27372;42.658;23.256;2023-11-21T14:00:48;47.53;;;28.60;;
41689;SDS011;27372;42.658;23.256;2023-11-21T14:03:21;51.35;;;28.65;;
41689;SDS011;27372;42.658;23.256;2023-11-21T14:05:48;51.30;;;29.38;;
41689;SDS011;27372;42.658;23.256;2023-11-21T14:08:21;55.70;;;30.00;;
41689;SDS011;27372;42.658;23.256;2023-11-21T14:10:48;49.75;;;30.05;;
41689;SDS011;27372;42.658;23.256;2023-11-21T14:13:18;47.67;;;28.38;;
41689;SDS011;27372;42.658;23.256;2023-11-21T14:15:44;49.33;;;29.40;;
41689;SDS011;27372;42.658;23.256;2023-11-21T14:18:12;54.60;;;29.95;;
41689;SDS011;27372;42.658;23.256;2023-11-21T14:20:43;59.38;;;32.30;;
41689;SDS011;27372;42.658;23.256;2023-11-21T14:23:09;54.25;;;31.10;;
41689;SDS011;27372;42.658;23.256;2023-11-21T14:25:36;70.90;;;40.97;;
41689;SDS011;27372;42.658;23.256;2023-11-21T14:28:03;63.70;;;35.25;;
41689;SDS011;27372;42.658;23.256;2023-11-21T14:30:29;67.93;;;33.30;;
41689;SDS011;27372;42.658;23.256;2023-11-21T14:32:57;59.88;;;34.58;;